AirNav   Air Wisconsin pilot careers
 
 715 users online  

SC90 Do-Little Field Airport
St Matthews, South Carolina, USA

GOING TO ST MATTHEWS?


FAA INFORMATION EFFECTIVE 07 DECEMBER 2017

Location

FAA Identifier: SC90
Lat/Long: 33-40-34.0000N / 080-56-54.0000W
33-40.566667N / 080-56.900000W
33.6761111 / -80.9483333
(estimated)
Elevation: 369 ft. / 112 m (estimated)
Variation: 05W (1990)
From city: 9 miles W of ST. MATTHEWS, SC
Time zone: UTC -5 (UTC -4 during Daylight Saving Time)
Zip code: 29135

Airport Operations

Airport use: Private use. Permission required prior to landing
Activation date: 06/1993
Control tower: no
ARTCC: JACKSONVILLE CENTER
FSS: ANDERSON FLIGHT SERVICE STATION
Attendance: UNATNDD
Wind indicator: yes
Segmented circle: no

Airport Communications

WX ASOS at OGB (14 nm S): 118.525 (803-536-3901)
WX ASOS at CUB (18 nm N): 119.675 (803-929-0665)
WX ASOS at CAE (18 nm NW): PHONE 803-822-4168

Nearby radio navigation aids

VOR radial/distance  VOR name  Freq  Var
CAEr156/12.1COLUMBIA VORTAC114.7002W
MMTr214/16.6MC ENTIRE VORTAC113.2008W
VANr302/27.7VANCE VORTAC110.4006W

 
NDB name  Hdg/Dist  Freq  Var  ID
SUMTER244/34.925207WSMS ... -- ...
AIKEN094/36.434706WAIK .- .. -.-
MANNING284/37.538106WMNI -- -. ..
WINNSBORO175/39.241407WFDW ..-. -.. .--

Airport Services

Runway Information

Runway 14/32

Dimensions: 3200 x 100 ft. / 975 x 30 m
Surface: turf
RUNWAY 14  RUNWAY 32
Traffic pattern: leftright

Airport Ownership and Management from official FAA records

Ownership: Privately-owned
Owner: DO-LITTLE FIELD INC
160 DO LITTLE LANE
ST MATTHEWS, SC 29135
Phone 803-874-4281
Manager: BILL MITCHELL
35 DOOLITTLE LN
ST MATTHEWS, SC 29135
Phone 803-874-1310

Airport Operational Statistics

Aircraft based on the field: 9
Single engine airplanes: 9
    

Instrument Procedures

There are no published instrument procedures at SC90.

Some nearby airports with instrument procedures:

KXNO - North Air Force Auxiliary Field (8 nm SW)
KOGB - Orangeburg Municipal Airport (14 nm S)
KMMT - Mc Entire Joint National Guard Base (16 nm NE)
6J0 - Lexington County Airport at Pelion (16 nm NW)
KCUB - Jim Hamilton L B Owens Airport (18 nm N)
KCAE - Columbia Metropolitan Airport (18 nm NW)
 
Loc | Ops | Rwys | IFR | FBO | Links
Com | Nav | Svcs | Stats | Notes


 
Area around SC90 (Do-Little Field Airport)
 
Road maps at: MapQuest Bing Google
 
Aerial photo
WARNING: Photo may not be current or correct
Aerial photo of SC90 (Do-Little Field Airport)
Photo by Eddie Price
Photo taken 10-Nov-2012
looking west.

Do you have a better or more recent aerial photo of Do-Little Field Airport that you would like to share? If so, please send us your photo.

 
Sectional chart

 
Airport distance calculator
Flying to Do-Little Field Airport? Find the distance to fly.

From to SC90

Sunrise and sunset
Times for 16-Dec-2017
 Local
(UTC-5)
 Zulu
(UTC)
Morning civil twilight06:5511:55
Sunrise07:2312:23
Sunset17:1622:16
Evening civil twilight17:4422:44

Current date and time
Zulu (UTC)  17-Dec-2017 02:14:41
Local (UTC-5)  16-Dec-2017 21:14:41
 
METAR
KXNO 
8nm SW 
170156Z AUTO 00000KT 10SM CLR 01/M02 A3029 RMK AO2 SLP263 T00131016 $
KOGB 
13nm S 
170153Z AUTO 00000KT 10SM CLR 02/00 A3030 RMK AO2 SLP261 T00170000
KMMT 
17nm NE 
170156Z AUTO 00000KT 10SM CLR 00/M01 A3028 RMK AO2 SLP259 T00031015 $
KCAE 
18nm NW 
170156Z 00000KT 10SM CLR 03/01 A3028 RMK AO2 SLP253 T00330006 $
KCUB 
18nm N 
170153Z AUTO 00000KT 7SM CLR 03/M01 A3029 RMK AO2 SLP258 T00281006
TAF
KOGB 
13nm S 
162109Z 1621/1718 VRB04KT P6SM SCT200
KMMT 
17nm NE 
170000Z 1700/1806 22006KT 9999 SCT220 QNH3020INS BECMG 1714/1715 VRB06KT 9999 FEW120 SCT250 QNH3021INS BECMG 1719/1720 27006KT 9999 BKN050 OVC150 QNH3022INS BECMG 1800/1801 21006KT 9999 OVC030 510053 QNH3018INS TX16/1721Z TN02/1711Z
KCAE 
18nm NW 
162109Z 1621/1718 VRB04KT P6SM SCT200
KCUB 
18nm N 
162109Z 1621/1718 VRB03KT P6SM SCT200
NOTAMs
Click for the latest NOTAMs
NOTAMs are issued by the DoD/FAA and will open in a separate window not controlled by AirNav.

 

 
 

Would you like to see your business listed on this page?

 If your business provides an interesting product or service to pilots, flight crews, aircraft, or users of the Do-Little Field Airport, you should consider listing it here.  To start the listing process, click on the button below
 
Add a business
 

Other Pages about Do-Little Field Airport

Update a link
 
Copyright © AirNav, LLC. All rights reserved. Privacy Policy  Contact